KWJF/WJF METAR and TAF weather

Enter ICAO airport designator
Station Type Date Time Source
KWJF METAR 2020/03/28 14:56 UTC NOAA

KWJF 281456Z 00000KT 10SM CLR 05/00 A3015 RMK AO2 SLP218 T00500000 51011


Station Type Date Time Source
KWJF Decoded METAR 2020/03/28 14:56 UTC NOAA

LANCASTER FOX AIRFIELD, CA, United States (KWJF) 34-44N 118-13W
Mar 28, 2020 - 10:56 AM EDT / 2020.03.28 1456 UTC
Wind: Calm:0
Visibility: 10 mile(s):0
Sky conditions: clear
Temperature: 41.0 F (5.0 C)
Dew Point: 32.0 F (0.0 C)
Relative Humidity: 70%
Pressure (altimeter): 30.15 in. Hg (1020 hPa)
Pressure tendency: 0.03 inches (1.1 hPa) higher than three hours ago
ob: KWJF 281456Z 00000KT 10SM CLR 05/00 A3015 RMK AO2 SLP218 T00500000 51011
cycle: 15

Station Type Date Time Source
KWJF TAF 2020/03/28 12:39 UTC NOAA

TAF KWJF 281135Z 2812/2912 25006KT P6SM SCT200
FM282100 25015KT P6SM BKN100

Example: see airport list